Time;durP1;ratioP1;P1;durP2;ratioP2;P2;SDS_P1;SDS_P2;PMS_P1;PMS_P2;Temp;Humidity;BMP_temperature;BMP_pressure;BME280_temperature;BME280_humidity;BME280_pressure;Samples;Min_cycle;Max_cycle;Signal;HPM_P1;HPM_P2
2023/05/30 00:00:00;;;;;;;15.02;2.08;;;;;;;;;;4983657;28;20292;-72
2023/05/30 00:02:25;;;;;;;12.40;1.73;;;;;;;;;;4982620;28;20034;-72
2023/05/30 00:04:51;;;;;;;10.63;2.17;;;;;;;;;;4984294;28;20599;-72
2023/05/30 00:07:17;;;;;;;15.25;2.00;;;;;;;;;;4981815;28;20289;-72
2023/05/30 00:09:43;;;;;;;5.70;1.50;;;;;;;;;;4976191;28;20049;-72
2023/05/30 00:12:08;;;;;;;11.87;1.70;;;;;;;;;;4983835;28;20482;-72
2023/05/30 00:14:36;;;;;;;19.42;2.05;;;;;;;;;;4974527;28;20270;-72
2023/05/30 00:17:02;;;;;;;14.93;2.00;;;;;;;;;;4979933;28;20040;-72
2023/05/30 00:19:28;;;;;;;12.82;1.50;;;;;;;;;;4984480;28;20642;-72
2023/05/30 00:21:54;;;;;;;6.90;2.00;;;;;;;;;;4980228;28;20358;-72
2023/05/30 00:24:20;;;;;;;10.70;1.48;;;;;;;;;;4979229;28;20079;-72
2023/05/30 00:26:45;;;;;;;8.07;1.65;;;;;;;;;;4975622;28;20093;-72
2023/05/30 00:29:10;;;;;;;8.48;2.13;;;;;;;;;;4982858;28;20022;-72
2023/05/30 00:31:36;;;;;;;10.30;1.97;;;;;;;;;;4980098;28;20089;-72
2023/05/30 00:34:01;;;;;;;8.15;1.48;;;;;;;;;;4984502;28;20280;-72
2023/05/30 00:36:26;;;;;;;7.20;1.60;;;;;;;;;;4985055;28;20105;-72
2023/05/30 00:38:52;;;;;;;12.07;1.50;;;;;;;;;;4990912;28;20283;-72
2023/05/30 00:41:17;;;;;;;4.70;1.30;;;;;;;;;;4986332;28;20026;-72
2023/05/30 00:43:42;;;;;;;6.20;1.75;;;;;;;;;;4983014;28;20297;-72
2023/05/30 00:46:10;;;;;;;12.63;2.23;;;;;;;;;;4986689;28;20366;-72
2023/05/30 00:48:35;;;;;;;11.30;1.58;;;;;;;;;;4986535;28;20311;-72
2023/05/30 00:51:00;;;;;;;14.23;2.30;;;;;;;;;;4984044;28;20029;-72
2023/05/30 00:53:26;;;;;;;4.53;1.80;;;;;;;;;;4986970;28;20025;-72
2023/05/30 00:55:51;;;;;;;6.85;1.63;;;;;;;;;;4984974;28;20101;-72
2023/05/30 00:58:17;;;;;;;8.52;1.65;;;;;;;;;;4987681;28;20030;-72
2023/05/30 01:00:42;;;;;;;6.47;1.08;;;;;;;;;;4985057;28;20034;-72
2023/05/30 01:03:08;;;;;;;12.57;2.35;;;;;;;;;;4984123;28;20469;-72
2023/05/30 01:05:34;;;;;;;15.48;2.20;;;;;;;;;;4989648;28;20026;-72
2023/05/30 01:07:59;;;;;;;14.85;1.80;;;;;;;;;;4989209;28;20036;-72
2023/05/30 01:10:24;;;;;;;7.40;1.60;;;;;;;;;;4991500;28;20019;-71
2023/05/30 01:12:51;;;;;;;15.48;1.42;;;;;;;;;;4990679;28;20269;-72
2023/05/30 01:15:19;;;;;;;9.20;1.60;;;;;;;;;;4992096;28;20010;-72
2023/05/30 01:17:44;;;;;;;11.63;1.63;;;;;;;;;;4990767;28;20057;-72
2023/05/30 01:20:14;;;;;;;14.80;2.13;;;;;;;;;;4989442;28;20057;-72
2023/05/30 01:22:51;;;;;;;10.32;2.85;;;;;;;;;;4983825;28;20038;-72
2023/05/30 01:25:27;;;;;;;4.80;1.55;;;;;;;;;;4981343;28;20101;-72
2023/05/30 01:27:52;;;;;;;15.07;2.03;;;;;;;;;;4977350;28;20500;-72
2023/05/30 01:30:18;;;;;;;9.65;2.28;;;;;;;;;;4978064;28;20109;-72
2023/05/30 01:32:44;;;;;;;9.95;2.05;;;;;;;;;;4989568;28;20363;-72
2023/05/30 01:35:20;;;;;;;6.30;1.35;;;;;;;;;;4990480;28;20021;-72
2023/05/30 01:37:45;;;;;;;9.70;1.92;;;;;;;;;;4985766;28;20094;-72
2023/05/30 01:40:11;;;;;;;9.50;1.57;;;;;;;;;;4986870;28;20504;-72
2023/05/30 01:42:36;;;;;;;9.35;1.70;;;;;;;;;;4989245;28;20273;-72
2023/05/30 01:45:07;;;;;;;12.02;1.70;;;;;;;;;;4988522;28;20108;-72
2023/05/30 01:47:43;;;;;;;11.60;1.88;;;;;;;;;;4989384;28;20041;-72
2023/05/30 01:50:13;;;;;;;13.80;2.55;;;;;;;;;;4989497;28;20369;-72
2023/05/30 01:52:38;;;;;;;;;;;;;;;;;;4990481;28;20046;-72
2023/05/30 01:55:05;;;;;;;6.40;1.73;;;;;;;;;;4989401;28;20015;-72
2023/05/30 01:57:30;;;;;;;8.90;1.77;;;;;;;;;;4985250;28;20128;-71
2023/05/30 01:59:57;;;;;;;19.38;2.47;;;;;;;;;;4987751;28;20023;-72
2023/05/30 02:02:22;;;;;;;13.07;2.28;;;;;;;;;;4989481;28;20101;-72
2023/05/30 02:04:47;;;;;;;14.73;1.70;;;;;;;;;;4989193;28;20122;-72
2023/05/30 02:07:12;;;;;;;12.37;1.73;;;;;;;;;;4988819;28;20319;-72
2023/05/30 02:09:39;;;;;;;12.90;2.07;;;;;;;;;;4990635;28;20644;-72
2023/05/30 02:12:04;;;;;;;8.65;2.05;;;;;;;;;;4984873;28;20281;-72
2023/05/30 02:14:30;;;;;;;10.55;2.50;;;;;;;;;;4989565;28;20018;-72
2023/05/30 02:16:59;;;;;;;14.10;2.35;;;;;;;;;;4986298;28;20025;-72
2023/05/30 02:19:24;;;;;;;13.32;1.70;;;;;;;;;;4989771;28;20022;-72
2023/05/30 02:21:50;;;;;;;10.63;2.47;;;;;;;;;;4988864;28;20025;-72
2023/05/30 02:24:15;;;;;;;12.75;2.25;;;;;;;;;;4986657;28;20309;-72
2023/05/30 02:26:40;;;;;;;11.10;2.33;;;;;;;;;;4984465;28;20130;-72
2023/05/30 02:29:06;;;;;;;9.47;1.90;;;;;;;;;;4989732;28;20369;-72
2023/05/30 02:31:31;;;;;;;14.07;2.88;;;;;;;;;;4988842;28;20332;-72
2023/05/30 02:33:56;;;;;;;14.45;1.85;;;;;;;;;;4989212;28;20068;-72
2023/05/30 02:36:21;;;;;;;11.33;1.87;;;;;;;;;;4983738;28;20046;-72
2023/05/30 02:38:47;;;;;;;10.60;1.80;;;;;;;;;;4986264;28;20273;-72
2023/05/30 02:41:12;;;;;;;8.43;1.75;;;;;;;;;;4986819;28;20508;-72
2023/05/30 02:43:39;;;;;;;10.55;1.85;;;;;;;;;;4988366;28;20562;-72
2023/05/30 02:46:05;;;;;;;15.18;2.00;;;;;;;;;;4987115;28;20014;-72
2023/05/30 02:48:30;;;;;;;11.13;1.67;;;;;;;;;;4989143;28;20021;-72
2023/05/30 02:50:56;;;;;;;14.02;1.67;;;;;;;;;;4987735;28;20053;-72
2023/05/30 02:53:21;;;;;;;12.57;1.52;;;;;;;;;;4983259;28;20060;-72
2023/05/30 02:55:46;;;;;;;10.02;1.50;;;;;;;;;;4985190;28;20035;-72
2023/05/30 02:58:13;;;;;;;16.88;3.88;;;;;;;;;;4982466;28;20488;-72
2023/05/30 03:00:38;;;;;;;16.95;2.80;;;;;;;;;;4986076;28;20033;-72
2023/05/30 03:03:03;;;;;;;14.20;2.08;;;;;;;;;;4985784;28;20026;-72
2023/05/30 03:05:29;;;;;;;13.73;1.77;;;;;;;;;;4987344;28;20037;-72
2023/05/30 03:07:54;;;;;;;16.70;2.70;;;;;;;;;;4985221;28;20058;-72
2023/05/30 03:10:19;;;;;;;12.80;2.30;;;;;;;;;;4983943;28;20501;-72
2023/05/30 03:12:45;;;;;;;18.98;3.03;;;;;;;;;;4988552;28;20316;-72
2023/05/30 03:15:10;;;;;;;13.07;2.13;;;;;;;;;;4985974;28;20104;-72
2023/05/30 03:17:35;;;;;;;16.17;2.50;;;;;;;;;;4983418;28;20057;-72
2023/05/30 03:20:01;;;;;;;14.70;2.47;;;;;;;;;;4986514;28;20504;-72
2023/05/30 03:22:26;;;;;;;13.95;2.53;;;;;;;;;;4986819;28;20492;-72
2023/05/30 03:24:51;;;;;;;9.37;2.40;;;;;;;;;;4986040;28;20018;-72
2023/05/30 03:27:16;;;;;;;15.37;2.80;;;;;;;;;;4984302;28;20335;-72
2023/05/30 03:29:41;;;;;;;18.00;2.23;;;;;;;;;;4988073;28;20678;-72
2023/05/30 03:32:07;;;;;;;22.77;3.78;;;;;;;;;;4985780;28;20269;-72
2023/05/30 03:34:33;;;;;;;16.63;2.50;;;;;;;;;;4988838;28;20018;-72
2023/05/30 03:36:59;;;;;;;19.08;3.42;;;;;;;;;;4986985;28;20581;-72
2023/05/30 03:39:24;;;;;;;13.85;2.50;;;;;;;;;;4988425;28;20101;-72
2023/05/30 03:41:49;;;;;;;20.67;2.22;;;;;;;;;;4988677;28;20023;-71
2023/05/30 03:44:14;;;;;;;13.20;2.33;;;;;;;;;;4985190;28;20018;-72
2023/05/30 03:46:40;;;;;;;11.90;2.35;;;;;;;;;;4988513;28;20022;-72
2023/05/30 03:49:05;;;;;;;17.33;3.03;;;;;;;;;;4981950;28;20032;-72
2023/05/30 03:51:31;;;;;;;16.38;3.28;;;;;;;;;;4986418;28;20064;-72
2023/05/30 03:53:56;;;;;;;27.93;2.93;;;;;;;;;;4986263;28;20453;-72
2023/05/30 03:56:21;;;;;;;13.95;2.70;;;;;;;;;;4983921;28;20281;-72
2023/05/30 03:58:46;;;;;;;17.20;2.83;;;;;;;;;;4985764;28;20684;-72
2023/05/30 04:01:11;;;;;;;15.77;2.97;;;;;;;;;;4987021;28;20269;-72
2023/05/30 04:03:37;;;;;;;13.80;3.00;;;;;;;;;;4988357;28;20313;-72
2023/05/30 04:06:03;;;;;;;12.65;2.85;;;;;;;;;;4983899;28;20079;-72
2023/05/30 04:08:28;;;;;;;18.17;3.30;;;;;;;;;;4989033;28;20102;-72
2023/05/30 04:10:53;;;;;;;21.43;3.23;;;;;;;;;;4987350;28;20034;-72
2023/05/30 04:13:18;;;;;;;22.60;3.55;;;;;;;;;;4990119;28;20304;-72
2023/05/30 04:15:43;;;;;;;15.50;4.00;;;;;;;;;;4989853;28;20019;-72
2023/05/30 04:18:09;;;;;;;22.93;3.77;;;;;;;;;;4990692;28;20027;-71
2023/05/30 04:20:34;;;;;;;26.50;3.40;;;;;;;;;;4990858;28;20772;-71
2023/05/30 04:22:59;;;;;;;13.57;3.38;;;;;;;;;;4987436;28;20277;-72
2023/05/30 04:25:24;;;;;;;19.80;3.45;;;;;;;;;;4986233;28;20113;-72
2023/05/30 04:27:50;;;;;;;18.40;3.67;;;;;;;;;;4986738;28;20425;-72
2023/05/30 04:30:15;;;;;;;21.15;3.90;;;;;;;;;;4991510;28;20364;-72
2023/05/30 04:32:40;;;;;;;14.90;4.10;;;;;;;;;;4990792;28;20018;-72
2023/05/30 04:35:07;;;;;;;12.37;3.53;;;;;;;;;;4988319;28;20113;-72
2023/05/30 04:37:33;;;;;;;24.02;5.82;;;;;;;;;;4986053;28;20332;-72
2023/05/30 04:39:59;;;;;;;23.08;4.85;;;;;;;;;;4985648;28;20014;-72
2023/05/30 04:42:26;;;;;;;17.23;4.50;;;;;;;;;;4991677;28;20038;-72
2023/05/30 04:44:53;;;;;;;16.80;4.22;;;;;;;;;;4989664;28;20057;-72
2023/05/30 04:47:18;;;;;;;15.77;4.32;;;;;;;;;;4988741;28;20397;-72
2023/05/30 04:49:45;;;;;;;17.00;3.73;;;;;;;;;;4989437;28;20018;-72
2023/05/30 04:52:10;;;;;;;27.90;4.35;;;;;;;;;;4990889;28;20275;-72
2023/05/30 04:54:36;;;;;;;13.82;3.58;;;;;;;;;;4986852;28;20469;-72
2023/05/30 04:57:02;;;;;;;14.40;3.78;;;;;;;;;;4989438;28;20026;-72
2023/05/30 04:59:27;;;;;;;19.58;3.67;;;;;;;;;;4983022;28;20118;-72
2023/05/30 05:01:53;;;;;;;13.73;2.93;;;;;;;;;;4986629;28;20105;-71
2023/05/30 05:04:19;;;;;;;23.77;4.00;;;;;;;;;;4988454;28;20342;-71
2023/05/30 05:06:44;;;;;;;22.60;3.88;;;;;;;;;;4990199;28;20477;-71
2023/05/30 05:09:10;;;;;;;29.83;5.25;;;;;;;;;;4988049;28;20022;-71
2023/05/30 05:11:36;;;;;;;21.95;4.00;;;;;;;;;;4992058;28;20015;-72
2023/05/30 05:14:01;;;;;;;19.40;4.18;;;;;;;;;;4985682;28;20038;-72
2023/05/30 05:16:26;;;;;;;20.27;4.17;;;;;;;;;;4988538;28;20098;-72
2023/05/30 05:18:51;;;;;;;13.48;3.83;;;;;;;;;;4987808;28;21035;-71
2023/05/30 05:21:16;;;;;;;15.23;4.30;;;;;;;;;;4987073;28;20031;-71
2023/05/30 05:23:42;;;;;;;15.13;3.67;;;;;;;;;;4988785;28;20360;-71
2023/05/30 05:26:07;;;;;;;25.13;4.57;;;;;;;;;;4983230;28;20309;-71
2023/05/30 05:28:32;;;;;;;20.30;4.53;;;;;;;;;;4989252;28;20026;-71
2023/05/30 05:30:58;;;;;;;16.85;3.78;;;;;;;;;;4984358;28;20407;-71
2023/05/30 05:33:23;;;;;;;16.58;3.65;;;;;;;;;;4986460;28;20022;-71
2023/05/30 05:35:49;;;;;;;16.58;4.32;;;;;;;;;;4988815;28;20439;-71
2023/05/30 05:38:14;;;;;;;24.02;3.70;;;;;;;;;;4986606;28;20061;-71
2023/05/30 05:40:39;;;;;;;13.80;3.90;;;;;;;;;;4984101;28;20033;-71
2023/05/30 05:43:05;;;;;;;19.60;4.13;;;;;;;;;;4980349;28;20393;-71
2023/05/30 05:45:30;;;;;;;35.78;5.28;;;;;;;;;;4984903;28;20121;-71
2023/05/30 05:47:55;;;;;;;22.80;4.13;;;;;;;;;;4981656;28;20057;-71
2023/05/30 05:50:21;;;;;;;31.73;6.93;;;;;;;;;;4985749;28;20277;-71
2023/05/30 05:52:46;;;;;;;20.57;4.40;;;;;;;;;;4982263;28;20274;-72
2023/05/30 05:55:11;;;;;;;18.00;5.43;;;;;;;;;;4981980;28;20628;-72
2023/05/30 05:57:36;;;;;;;27.77;5.27;;;;;;;;;;4982535;28;20018;-71
2023/05/30 06:00:05;;;;;;;23.02;4.32;;;;;;;;;;4983636;28;20269;-71
2023/05/30 06:02:30;;;;;;;16.70;4.07;;;;;;;;;;4982872;28;20450;-71
2023/05/30 06:04:55;;;;;;;17.67;4.03;;;;;;;;;;4978679;28;20059;-72
2023/05/30 06:07:20;;;;;;;17.57;3.90;;;;;;;;;;4977391;28;20307;-71
2023/05/30 06:09:45;;;;;;;20.10;4.55;;;;;;;;;;4976117;28;22285;-71
2023/05/30 06:12:10;;;;;;;16.93;4.70;;;;;;;;;;4980982;28;20026;-72
2023/05/30 06:14:36;;;;;;;16.07;3.83;;;;;;;;;;4975529;28;20763;-72
2023/05/30 06:17:01;;;;;;;19.17;5.00;;;;;;;;;;4977085;28;20261;-72
2023/05/30 06:19:26;;;;;;;21.08;4.53;;;;;;;;;;4977277;28;20034;-72
2023/05/30 06:21:51;;;;;;;13.27;4.30;;;;;;;;;;4976196;28;21960;-72
2023/05/30 06:24:16;;;;;;;15.38;4.32;;;;;;;;;;4976946;28;20312;-72
2023/05/30 06:26:42;;;;;;;17.03;3.80;;;;;;;;;;4976637;28;20380;-72
2023/05/30 06:29:07;;;;;;;19.65;4.50;;;;;;;;;;4981936;28;20376;-72
2023/05/30 06:31:32;;;;;;;13.13;5.47;;;;;;;;;;4974094;28;20038;-72
2023/05/30 06:33:57;;;;;;;24.23;4.73;;;;;;;;;;4978482;28;20343;-72
2023/05/30 06:36:22;;;;;;;16.27;4.07;;;;;;;;;;4978233;28;20288;-72
2023/05/30 06:38:47;;;;;;;13.53;4.43;;;;;;;;;;4971953;28;20266;-72
2023/05/30 06:41:13;;;;;;;16.77;4.27;;;;;;;;;;4976692;28;20752;-72
2023/05/30 06:43:38;;;;;;;13.55;3.70;;;;;;;;;;4977146;28;20281;-72
2023/05/30 06:46:05;;;;;;;17.38;5.25;;;;;;;;;;4974108;28;20457;-72
2023/05/30 06:48:30;;;;;;;23.92;4.78;;;;;;;;;;4973076;28;20524;-72
2023/05/30 06:50:55;;;;;;;18.00;4.27;;;;;;;;;;4978155;28;20022;-71
2023/05/30 06:53:21;;;;;;;19.17;4.90;;;;;;;;;;4972907;28;20288;-71
2023/05/30 06:55:46;;;;;;;21.65;4.15;;;;;;;;;;4977222;28;20485;-71
2023/05/30 06:58:12;;;;;;;15.57;4.53;;;;;;;;;;4976884;28;20049;-72
2023/05/30 07:00:38;;;;;;;13.63;4.50;;;;;;;;;;4974292;28;20278;-72
2023/05/30 07:03:03;;;;;;;17.48;4.57;;;;;;;;;;4973905;28;20037;-72
2023/05/30 07:05:28;;;;;;;15.32;4.63;;;;;;;;;;4971570;28;20776;-72
2023/05/30 07:07:54;;;;;;;18.02;4.65;;;;;;;;;;4974646;28;21394;-72
2023/05/30 07:10:19;;;;;;;13.10;4.57;;;;;;;;;;4974527;28;20031;-72
2023/05/30 07:12:45;;;;;;;18.75;3.92;;;;;;;;;;4977096;28;20053;-72
2023/05/30 07:15:10;;;;;;;25.55;4.72;;;;;;;;;;4977062;28;20469;-72
2023/05/30 07:17:35;;;;;;;13.48;3.85;;;;;;;;;;4976748;28;20645;-72
2023/05/30 07:20:01;;;;;;;23.33;4.57;;;;;;;;;;4979912;28;20378;-72
2023/05/30 07:22:26;;;;;;;24.00;5.10;;;;;;;;;;4981564;28;20045;-70
2023/05/30 07:24:51;;;;;;;20.77;4.25;;;;;;;;;;4976315;28;20284;-70
2023/05/30 07:27:16;;;;;;;14.67;4.47;;;;;;;;;;4977172;28;20481;-71
2023/05/30 07:29:41;;;;;;;21.87;4.53;;;;;;;;;;4976699;28;20343;-71
2023/05/30 07:32:07;;;;;;;13.20;3.97;;;;;;;;;;4975035;28;20277;-71
2023/05/30 07:34:32;;;;;;;25.92;5.72;;;;;;;;;;4979049;28;20281;-71
2023/05/30 07:36:57;;;;;;;17.92;4.22;;;;;;;;;;4978525;28;20027;-71
2023/05/30 07:39:23;;;;;;;15.20;3.47;;;;;;;;;;4975022;28;20046;-71
2023/05/30 07:41:48;;;;;;;23.48;4.60;;;;;;;;;;4978474;28;20262;-71
2023/05/30 07:44:13;;;;;;;16.83;3.83;;;;;;;;;;4983299;28;20026;-72
2023/05/30 07:46:38;;;;;;;20.60;5.03;;;;;;;;;;4984874;28;20301;-72
2023/05/30 07:49:04;;;;;;;13.23;3.50;;;;;;;;;;4981629;28;20404;-72
2023/05/30 07:51:30;;;;;;;18.58;4.38;;;;;;;;;;4980081;28;21318;-70
2023/05/30 07:53:55;;;;;;;15.10;4.55;;;;;;;;;;4980986;28;20018;-70
2023/05/30 07:56:21;;;;;;;15.97;3.77;;;;;;;;;;4982407;28;20023;-70
2023/05/30 07:58:46;;;;;;;18.10;3.65;;;;;;;;;;4981270;28;20025;-70
2023/05/30 08:01:11;;;;;;;18.13;3.50;;;;;;;;;;4978526;28;20160;-70
2023/05/30 08:03:36;;;;;;;14.23;3.77;;;;;;;;;;4976252;28;20304;-70
2023/05/30 08:06:01;;;;;;;19.77;3.43;;;;;;;;;;4979182;28;22891;-69
2023/05/30 08:08:27;;;;;;;15.20;4.03;;;;;;;;;;4979747;28;20030;-69
2023/05/30 08:10:52;;;;;;;19.75;3.00;;;;;;;;;;4980854;28;20285;-69
2023/05/30 08:13:18;;;;;;;11.37;3.83;;;;;;;;;;4978226;28;20026;-69
2023/05/30 08:15:44;;;;;;;16.88;3.85;;;;;;;;;;4977628;28;20022;-69
2023/05/30 08:18:09;;;;;;;14.02;3.70;;;;;;;;;;4981121;28;20034;-69
2023/05/30 08:20:35;;;;;;;13.23;3.87;;;;;;;;;;4980903;28;20022;-71
2023/05/30 08:23:01;;;;;;;15.15;3.30;;;;;;;;;;4982327;28;20269;-71
2023/05/30 08:25:32;;;;;;;17.52;4.25;;;;;;;;;;4981504;28;20397;-71
2023/05/30 08:27:59;;;;;;;15.65;3.70;;;;;;;;;;4979681;28;20022;-71
2023/05/30 08:30:24;;;;;;;13.82;3.55;;;;;;;;;;4982069;28;20428;-71
2023/05/30 08:32:50;;;;;;;17.67;5.13;;;;;;;;;;4977221;28;20022;-71
2023/05/30 08:35:15;;;;;;;16.38;4.05;;;;;;;;;;4984245;28;20273;-71
2023/05/30 08:37:40;;;;;;;10.83;3.37;;;;;;;;;;4981502;28;20019;-71
2023/05/30 08:40:09;;;;;;;21.33;4.30;;;;;;;;;;4982858;28;20288;-71
2023/05/30 08:42:34;;;;;;;12.65;3.30;;;;;;;;;;4983404;28;20425;-71
2023/05/30 08:44:59;;;;;;;15.30;3.60;;;;;;;;;;4982481;28;20018;-71
2023/05/30 08:47:24;;;;;;;12.30;3.42;;;;;;;;;;4980283;28;20372;-71
2023/05/30 08:49:51;;;;;;;14.52;3.50;;;;;;;;;;4978710;28;20026;-71
2023/05/30 08:52:16;;;;;;;15.15;3.90;;;;;;;;;;4979938;28;20049;-71
2023/05/30 08:54:47;;;;;;;14.48;3.38;;;;;;;;;;4979292;28;20060;-71
2023/05/30 08:57:20;;;;;;;14.00;3.72;;;;;;;;;;4980622;28;20149;-71
2023/05/30 08:59:46;;;;;;;18.08;3.42;;;;;;;;;;4978673;28;20390;-71
2023/05/30 09:02:12;;;;;;;20.73;4.10;;;;;;;;;;4980799;28;20038;-71
2023/05/30 09:04:37;;;;;;;12.02;3.50;;;;;;;;;;4979568;28;20453;-72
2023/05/30 09:07:03;;;;;;;12.93;4.00;;;;;;;;;;4979207;28;20581;-71
2023/05/30 09:09:29;;;;;;;20.65;5.88;;;;;;;;;;4981879;28;20080;-72
2023/05/30 09:11:54;;;;;;;19.77;3.72;;;;;;;;;;4978801;28;20030;-71
2023/05/30 09:14:20;;;;;;;17.60;3.70;;;;;;;;;;4978238;28;20052;-71
2023/05/30 09:16:45;;;;;;;20.27;4.55;;;;;;;;;;4977982;28;20492;-71
2023/05/30 09:19:10;;;;;;;18.08;4.32;;;;;;;;;;4980685;28;20026;-72
2023/05/30 09:21:36;;;;;;;12.77;3.83;;;;;;;;;;4976642;28;20501;-71
2023/05/30 09:24:05;;;;;;;16.10;4.07;;;;;;;;;;4978980;28;20046;-72
2023/05/30 09:26:32;;;;;;;17.85;4.55;;;;;;;;;;4979712;28;20099;-72
2023/05/30 09:29:01;;;;;;;14.48;4.50;;;;;;;;;;4975462;28;20014;-71
2023/05/30 09:31:26;;;;;;;19.60;4.65;;;;;;;;;;4979148;28;20046;-71
2023/05/30 09:33:52;;;;;;;17.88;4.53;;;;;;;;;;4978642;28;20050;-71
2023/05/30 09:36:18;;;;;;;18.35;3.90;;;;;;;;;;4981735;28;20026;-71
2023/05/30 09:38:57;;;;;;;13.18;3.67;;;;;;;;;;4977535;28;20457;-71
2023/05/30 09:41:23;;;;;;;37.33;5.18;;;;;;;;;;4978602;28;20030;-71
2023/05/30 09:43:53;;;;;;;17.27;5.15;;;;;;;;;;4972975;28;20036;-71
2023/05/30 09:46:21;;;;;;;16.00;4.43;;;;;;;;;;4979214;28;20113;-72
2023/05/30 09:48:46;;;;;;;17.45;3.90;;;;;;;;;;4977643;28;20027;-71
2023/05/30 09:51:11;;;;;;;20.98;4.82;;;;;;;;;;4979265;28;20019;-71
2023/05/30 09:53:36;;;;;;;13.43;4.40;;;;;;;;;;4979992;28;20726;-71
2023/05/30 09:56:02;;;;;;;20.58;5.22;;;;;;;;;;4976530;28;20026;-72
2023/05/30 09:58:28;;;;;;;18.63;4.65;;;;;;;;;;4979944;28;20054;-72
2023/05/30 10:00:54;;;;;;;13.65;4.10;;;;;;;;;;4978251;28;20166;-71
2023/05/30 10:03:20;;;;;;;10.70;3.83;;;;;;;;;;4977058;28;20031;-72
2023/05/30 10:05:45;;;;;;;12.60;3.83;;;;;;;;;;4978229;28;20027;-71
2023/05/30 10:08:11;;;;;;;17.67;4.40;;;;;;;;;;4979531;28;20030;-71
2023/05/30 10:10:38;;;;;;;9.50;3.63;;;;;;;;;;4980914;28;20409;-71
2023/05/30 10:13:03;;;;;;;10.38;4.00;;;;;;;;;;4978202;28;20022;-71
2023/05/30 10:15:28;;;;;;;19.90;4.65;;;;;;;;;;4975759;28;20069;-71
2023/05/30 10:18:13;;;;;;;14.60;4.72;;;;;;;;;;4976438;28;20133;-71
2023/05/30 10:20:43;;;;;;;13.15;4.63;;;;;;;;;;4982247;28;20066;-71
2023/05/30 10:23:12;;;;;;;17.02;4.50;;;;;;;;;;4978721;28;20042;-71
2023/05/30 10:25:41;;;;;;;15.02;4.22;;;;;;;;;;4978696;28;20031;-71
2023/05/30 10:28:06;;;;;;;8.60;4.40;;;;;;;;;;4976338;28;20028;-71
2023/05/30 10:30:32;;;;;;;18.05;5.00;;;;;;;;;;4974148;28;20015;-72
2023/05/30 10:33:08;;;;;;;10.43;3.95;;;;;;;;;;4973168;28;20098;-72
2023/05/30 10:35:33;;;;;;;13.63;4.57;;;;;;;;;;4977541;28;20157;-71
2023/05/30 10:37:59;;;;;;;21.35;4.15;;;;;;;;;;4974471;28;20121;-72
2023/05/30 10:40:28;;;;;;;7.95;2.70;;;;;;;;;;4976961;28;20436;-72
2023/05/30 10:42:53;;;;;;;14.70;3.80;;;;;;;;;;4974448;28;21848;-72
2023/05/30 10:45:45;;;;;;;12.32;4.18;;;;;;;;;;4975963;28;20270;-72
2023/05/30 10:48:10;;;;;;;15.15;4.13;;;;;;;;;;4953701;28;20039;-71
2023/05/30 10:50:41;;;;;;;12.67;3.60;;;;;;;;;;4978843;28;20491;-71
2023/05/30 10:53:16;;;;;;;16.88;5.25;;;;;;;;;;4975374;28;20121;-71
2023/05/30 10:55:42;;;;;;;7.93;3.78;;;;;;;;;;4978217;28;20027;-71
2023/05/30 10:58:26;;;;;;;17.00;3.60;;;;;;;;;;4977189;28;20034;-72
2023/05/30 11:00:52;;;;;;;12.80;4.30;;;;;;;;;;4977955;28;20031;-71
2023/05/30 11:03:34;;;;;;;13.02;3.70;;;;;;;;;;4979134;28;20034;-71
2023/05/30 11:06:00;;;;;;;17.00;4.22;;;;;;;;;;4975962;28;20270;-71
2023/05/30 11:08:25;;;;;;;11.50;3.08;;;;;;;;;;4978247;28;20489;-72
2023/05/30 11:10:55;;;;;;;17.73;3.67;;;;;;;;;;4977956;28;20034;-72
2023/05/30 11:13:20;;;;;;;11.18;3.28;;;;;;;;;;4978466;28;20098;-72
2023/05/30 11:15:46;;;;;;;12.73;3.50;;;;;;;;;;4975898;28;20031;-71
2023/05/30 11:18:15;;;;;;;15.95;4.95;;;;;;;;;;4976724;28;20033;-72
2023/05/30 11:20:55;;;;;;;9.88;4.30;;;;;;;;;;4977378;28;20104;-72
2023/05/30 11:23:23;;;;;;;10.02;3.00;;;;;;;;;;4974448;28;20053;-72
2023/05/30 11:25:51;;;;;;;13.25;3.85;;;;;;;;;;4977543;28;20030;-72
2023/05/30 11:28:16;;;;;;;14.45;4.00;;;;;;;;;;4978353;28;20022;-72
2023/05/30 11:30:45;;;;;;;9.90;3.30;;;;;;;;;;4978412;28;20041;-70
2023/05/30 11:33:12;;;;;;;16.13;3.80;;;;;;;;;;4978523;28;20018;-70
2023/05/30 11:35:38;;;;;;;12.38;3.60;;;;;;;;;;4976752;28;20517;-72
2023/05/30 11:38:04;;;;;;;11.18;4.05;;;;;;;;;;4977941;28;20485;-72
2023/05/30 11:40:29;;;;;;;10.05;3.70;;;;;;;;;;4976078;28;20113;-72
2023/05/30 11:42:54;;;;;;;9.80;3.47;;;;;;;;;;4979410;28;20058;-72
2023/05/30 11:45:23;;;;;;;13.20;4.75;;;;;;;;;;4981213;28;20281;-72
2023/05/30 11:47:48;;;;;;;15.63;3.28;;;;;;;;;;4980000;28;20543;-71
2023/05/30 11:50:14;;;;;;;14.02;3.58;;;;;;;;;;4981266;28;20030;-72
2023/05/30 11:52:39;;;;;;;8.13;2.87;;;;;;;;;;4976843;28;20477;-71
2023/05/30 11:55:04;;;;;;;11.32;3.03;;;;;;;;;;4978447;28;20026;-72
2023/05/30 11:57:31;;;;;;;12.27;3.58;;;;;;;;;;4975775;28;20022;-72
2023/05/30 11:59:57;;;;;;;8.85;3.22;;;;;;;;;;4978417;28;20022;-72
2023/05/30 12:02:26;;;;;;;14.15;3.22;;;;;;;;;;4974467;28;20400;-72
2023/05/30 12:04:58;;;;;;;13.17;3.30;;;;;;;;;;4974307;28;20065;-72
2023/05/30 12:07:23;;;;;;;13.15;4.03;;;;;;;;;;4975642;28;20037;-72
2023/05/30 12:09:48;;;;;;;11.63;3.47;;;;;;;;;;4974154;28;20049;-72
2023/05/30 12:12:14;;;;;;;12.20;2.97;;;;;;;;;;4974508;28;20061;-71
2023/05/30 12:14:55;;;;;;;12.80;3.72;;;;;;;;;;4977125;28;20379;-72
2023/05/30 12:17:21;;;;;;;9.15;3.35;;;;;;;;;;4974734;28;21640;-72
2023/05/30 12:19:49;;;;;;;10.13;3.00;;;;;;;;;;4977927;28;20150;-72
2023/05/30 12:22:17;;;;;;;8.55;3.05;;;;;;;;;;4975967;28;20026;-72
2023/05/30 12:24:42;;;;;;;11.05;4.00;;;;;;;;;;4977001;28;20126;-72
2023/05/30 12:27:18;;;;;;;15.25;3.63;;;;;;;;;;4976918;28;20112;-72
2023/05/30 12:29:43;;;;;;;8.57;2.80;;;;;;;;;;4979707;28;20129;-72
2023/05/30 12:32:08;;;;;;;10.13;3.38;;;;;;;;;;4981665;28;20795;-72
2023/05/30 12:34:38;;;;;;;9.38;3.35;;;;;;;;;;4983219;28;20042;-72
2023/05/30 12:37:05;;;;;;;9.40;4.15;;;;;;;;;;4980853;28;20042;-72
2023/05/30 12:39:32;;;;;;;16.90;4.00;;;;;;;;;;4979552;28;20027;-72
2023/05/30 12:41:57;;;;;;;8.50;3.10;;;;;;;;;;4979625;28;20022;-72
2023/05/30 12:44:22;;;;;;;9.97;4.07;;;;;;;;;;4979432;28;20034;-71
2023/05/30 12:46:48;;;;;;;7.97;2.90;;;;;;;;;;4977050;28;21525;-72
2023/05/30 12:49:13;;;;;;;11.33;3.43;;;;;;;;;;4978074;28;20014;-72
2023/05/30 12:51:38;;;;;;;10.95;3.50;;;;;;;;;;4978508;28;20265;-72
2023/05/30 12:54:03;;;;;;;13.48;3.40;;;;;;;;;;4984562;28;20023;-72
2023/05/30 12:56:29;;;;;;;11.13;3.60;;;;;;;;;;4981690;28;20023;-72
2023/05/30 12:58:54;;;;;;;11.60;3.83;;;;;;;;;;4980304;28;20783;-72
2023/05/30 13:01:19;;;;;;;11.67;3.47;;;;;;;;;;4980240;28;20057;-72
2023/05/30 13:03:44;;;;;;;9.00;3.38;;;;;;;;;;4978749;28;20834;-73
2023/05/30 13:06:10;;;;;;;9.48;3.53;;;;;;;;;;4978727;28;20437;-73
2023/05/30 13:08:35;;;;;;;11.80;3.15;;;;;;;;;;4978796;28;20027;-72
2023/05/30 13:11:00;;;;;;;7.83;3.50;;;;;;;;;;4982539;28;20035;-73
2023/05/30 13:13:26;;;;;;;6.60;2.30;;;;;;;;;;4978877;28;20021;-73
2023/05/30 13:15:53;;;;;;;8.20;2.63;;;;;;;;;;4980190;28;20065;-73
2023/05/30 13:18:18;;;;;;;10.60;3.13;;;;;;;;;;4979057;28;20320;-73
2023/05/30 13:20:43;;;;;;;11.27;3.60;;;;;;;;;;4979743;28;20054;-73
2023/05/30 13:23:08;;;;;;;12.97;2.93;;;;;;;;;;4980183;28;20018;-73
2023/05/30 13:25:33;;;;;;;6.93;3.10;;;;;;;;;;4980043;28;20045;-72
2023/05/30 13:27:58;;;;;;;11.90;3.77;;;;;;;;;;4977857;28;20026;-73
2023/05/30 13:30:23;;;;;;;8.87;2.67;;;;;;;;;;4978756;28;20033;-73
2023/05/30 13:32:49;;;;;;;15.07;3.07;;;;;;;;;;4978225;28;20276;-73
2023/05/30 13:35:14;;;;;;;8.20;3.13;;;;;;;;;;4982958;28;20014;-72
2023/05/30 13:37:40;;;;;;;15.03;2.90;;;;;;;;;;4980068;28;20281;-72
2023/05/30 13:40:05;;;;;;;10.55;2.85;;;;;;;;;;4981393;28;20312;-72
2023/05/30 13:42:31;;;;;;;8.43;2.90;;;;;;;;;;4979336;28;20386;-73
2023/05/30 13:44:56;;;;;;;11.35;3.58;;;;;;;;;;4978058;28;20018;-72
2023/05/30 13:47:21;;;;;;;5.23;3.10;;;;;;;;;;4977621;28;20033;-78
2023/05/30 13:49:47;;;;;;;13.00;3.13;;;;;;;;;;4978995;28;20073;-72
2023/05/30 13:52:13;;;;;;;9.07;3.28;;;;;;;;;;4976744;28;20289;-72
2023/05/30 13:54:40;;;;;;;13.63;3.50;;;;;;;;;;4981813;28;20022;-72
2023/05/30 13:57:06;;;;;;;9.82;3.25;;;;;;;;;;4982616;28;20026;-73
2023/05/30 13:59:31;;;;;;;12.02;3.60;;;;;;;;;;4977553;28;20104;-72
2023/05/30 14:01:58;;;;;;;12.23;3.27;;;;;;;;;;4979986;28;20026;-73
2023/05/30 14:04:23;;;;;;;9.80;3.30;;;;;;;;;;4977951;28;20283;-73
2023/05/30 14:06:50;;;;;;;11.87;3.40;;;;;;;;;;4979850;28;20038;-70
2023/05/30 14:09:16;;;;;;;13.55;3.97;;;;;;;;;;4977695;28;20279;-72
2023/05/30 14:11:41;;;;;;;16.45;3.45;;;;;;;;;;4975018;28;20045;-75
2023/05/30 14:14:06;;;;;;;12.82;3.35;;;;;;;;;;4978278;28;20018;-71
2023/05/30 14:16:32;;;;;;;7.20;3.08;;;;;;;;;;4976397;28;20026;-72
2023/05/30 14:18:57;;;;;;;11.82;3.03;;;;;;;;;;4978539;28;20032;-72
2023/05/30 14:21:22;;;;;;;13.32;3.83;;;;;;;;;;4981269;28;20555;-72
2023/05/30 14:23:47;;;;;;;7.57;3.07;;;;;;;;;;4975704;28;20022;-72
2023/05/30 14:26:12;;;;;;;10.17;3.93;;;;;;;;;;4976052;28;20030;-72